Time;durP1;ratioP1;P1;durP2;ratioP2;P2;SDS_P1;SDS_P2;PMS_P1;PMS_P2;Temp;Humidity;BMP_temperature;BMP_pressure;BME280_temperature;BME280_humidity;BME280_pressure;Samples;Min_cycle;Max_cycle;Signal;HPM_P1;HPM_P2
2023/01/25 00:00:02;;;;;;;1999.90;999.90;;;3.40;99.90;;;;;;5010570;28;20493;-66
2023/01/25 00:02:29;;;;;;;1999.90;999.90;;;3.50;99.90;;;;;;5023403;28;20528;-66
2023/01/25 00:04:56;;;;;;;1999.90;999.90;;;3.50;99.90;;;;;;5030318;28;20476;-66
2023/01/25 00:07:23;;;;;;;1999.90;999.90;;;3.60;99.90;;;;;;5030193;28;20878;-66
2023/01/25 00:09:49;;;;;;;1999.90;999.90;;;3.60;99.90;;;;;;5030245;28;20445;-66
2023/01/25 00:12:16;;;;;;;1999.90;999.90;;;3.60;99.90;;;;;;5030057;28;20958;-67
2023/01/25 00:14:43;;;;;;;1999.90;999.90;;;3.70;99.90;;;;;;5029947;28;20471;-66
2023/01/25 00:17:11;;;;;;;1999.90;999.90;;;3.60;99.90;;;;;;5030080;28;20452;-66
2023/01/25 00:19:38;;;;;;;1999.90;999.90;;;3.60;99.90;;;;;;5030006;28;20485;-67
2023/01/25 00:22:04;;;;;;;1999.90;999.90;;;3.50;99.90;;;;;;5029701;28;20832;-66
2023/01/25 00:24:31;;;;;;;1999.90;999.90;;;3.50;99.90;;;;;;5029976;28;20834;-66
2023/01/25 00:26:58;;;;;;;1999.90;999.90;;;3.50;99.90;;;;;;5029941;28;20447;-65
2023/01/25 00:29:25;;;;;;;1999.90;999.90;;;3.40;99.90;;;;;;5029558;28;21134;-65
2023/01/25 00:32:02;;;;;;;1999.90;999.90;;;3.40;99.90;;;;;;5029670;28;20456;-67
2023/01/25 00:34:44;;;;;;;1999.90;999.90;;;3.40;99.90;;;;;;5029464;28;20543;-67
2023/01/25 00:37:18;;;;;;;1999.90;999.90;;;3.40;99.90;;;;;;5029826;28;20456;-66
2023/01/25 00:39:45;;;;;;;1999.90;999.90;;;3.30;99.90;;;;;;5029674;28;20854;-67
2023/01/25 00:42:12;;;;;;;1999.90;999.90;;;3.30;99.90;;;;;;5029915;28;20445;-64
2023/01/25 00:44:39;;;;;;;1999.90;999.90;;;3.30;99.90;;;;;;5029118;28;20461;-66
2023/01/25 00:47:06;;;;;;;1999.90;999.90;;;3.30;99.90;;;;;;5029843;28;20859;-66
2023/01/25 00:49:33;;;;;;;1999.90;999.90;;;3.30;99.90;;;;;;5029570;28;20437;-66
2023/01/25 00:52:01;;;;;;;1999.90;999.90;;;3.30;99.90;;;;;;5029621;28;20444;-66
2023/01/25 00:54:28;;;;;;;1999.90;999.90;;;3.30;99.90;;;;;;5029049;28;20484;-65
2023/01/25 00:56:55;;;;;;;1999.90;999.90;;;3.30;99.90;;;;;;5029953;28;20441;-67
2023/01/25 00:59:22;;;;;;;1999.90;999.90;;;3.30;99.90;;;;;;5029689;28;20853;-66
2023/01/25 01:01:50;;;;;;;1999.90;999.90;;;3.30;99.90;;;;;;5029349;28;20455;-66
2023/01/25 01:04:16;;;;;;;1999.90;999.90;;;3.30;99.90;;;;;;5029444;28;20473;-66
2023/01/25 01:06:43;;;;;;;1999.90;999.90;;;3.30;99.90;;;;;;5029481;28;20445;-67
2023/01/25 01:09:14;;;;;;;1999.90;999.90;;;3.20;99.90;;;;;;5029577;28;20444;-67
2023/01/25 01:11:41;;;;;;;1999.90;999.90;;;3.30;99.90;;;;;;5029148;28;21001;-66
2023/01/25 01:14:08;;;;;;;1999.90;999.90;;;3.30;99.90;;;;;;5028768;28;20461;-66
2023/01/25 01:16:35;;;;;;;1999.90;999.90;;;3.30;99.90;;;;;;5029244;28;20551;-67
2023/01/25 01:19:02;;;;;;;1999.90;999.90;;;3.40;99.90;;;;;;5029351;28;20539;-67
2023/01/25 01:21:29;;;;;;;1999.90;999.90;;;3.40;99.90;;;;;;5027371;28;20491;-66
2023/01/25 01:23:55;;;;;;;1999.90;999.90;;;3.40;99.90;;;;;;5008977;28;20470;-67
2023/01/25 01:26:24;;;;;;;1999.90;999.90;;;3.40;99.90;;;;;;5009570;28;20916;-67
2023/01/25 01:28:50;;;;;;;1999.90;999.90;;;3.50;99.90;;;;;;5009093;28;20453;-67
2023/01/25 01:31:19;;;;;;;1999.90;999.90;;;3.50;99.90;;;;;;5009607;28;21045;-66
2023/01/25 01:33:49;;;;;;;1999.90;999.90;;;3.50;99.90;;;;;;5008822;28;20497;-66
2023/01/25 01:36:17;;;;;;;1999.90;999.90;;;3.50;99.90;;;;;;5009393;28;20560;-66
2023/01/25 01:38:45;;;;;;;1999.90;999.90;;;3.50;99.90;;;;;;5009114;28;20445;-67
2023/01/25 01:41:12;;;;;;;1999.90;999.90;;;3.60;99.90;;;;;;5010630;28;20531;-66
2023/01/25 01:43:41;;;;;;;1999.90;999.90;;;3.50;99.90;;;;;;5015273;28;20453;-67
2023/01/25 01:46:14;;;;;;;1999.90;999.90;;;3.50;99.90;;;;;;5015915;28;20446;-66
2023/01/25 01:48:45;;;;;;;1999.90;999.90;;;3.40;99.90;;;;;;5015723;28;20472;-66
2023/01/25 01:51:17;;;;;;;1999.90;999.90;;;3.40;99.90;;;;;;5015631;28;20452;-66
2023/01/25 01:53:48;;;;;;;1999.90;999.90;;;3.40;99.90;;;;;;5015275;28;20549;-67
2023/01/25 01:56:19;;;;;;;1999.90;999.90;;;3.40;99.90;;;;;;5015696;28;20449;-67
2023/01/25 01:58:50;;;;;;;1999.90;999.90;;;3.40;99.90;;;;;;5015701;28;20454;-67
2023/01/25 02:01:19;;;;;;;1999.90;999.90;;;3.30;99.90;;;;;;5015437;28;20485;-67
2023/01/25 02:03:46;;;;;;;1999.90;999.90;;;3.30;99.90;;;;;;5015118;28;20551;-67
2023/01/25 02:06:15;;;;;;;1999.90;999.90;;;3.30;99.90;;;;;;5015154;28;20465;-67
2023/01/25 02:08:42;;;;;;;1999.90;999.90;;;3.30;99.90;;;;;;5015460;28;20460;-67
2023/01/25 02:11:12;;;;;;;1999.90;999.90;;;3.30;99.90;;;;;;5015268;28;20541;-66
2023/01/25 02:13:39;;;;;;;1999.90;999.90;;;3.30;99.90;;;;;;5015052;28;20457;-66
2023/01/25 02:16:16;;;;;;;1999.90;999.90;;;3.30;99.90;;;;;;5015467;28;20808;-66
2023/01/25 02:18:43;;;;;;;1999.90;999.90;;;3.30;99.90;;;;;;5015305;28;20446;-66
2023/01/25 02:21:10;;;;;;;1999.90;999.90;;;3.30;99.90;;;;;;5015561;28;20481;-66
2023/01/25 02:23:47;;;;;;;1999.90;999.90;;;3.30;99.90;;;;;;5014820;28;20812;-67
2023/01/25 02:26:17;;;;;;;1999.90;999.90;;;3.30;99.90;;;;;;5015272;28;20454;-66
2023/01/25 02:28:49;;;;;;;1999.90;999.90;;;3.30;99.90;;;;;;5015283;28;20536;-66
2023/01/25 02:31:15;;;;;;;1999.90;999.90;;;3.30;99.90;;;;;;5015235;28;20515;-66
2023/01/25 02:33:42;;;;;;;1999.90;999.90;;;3.30;99.90;;;;;;5014642;28;20983;-66
2023/01/25 02:36:20;;;;;;;1999.90;999.90;;;3.30;99.90;;;;;;5015373;28;20869;-66
2023/01/25 02:38:51;;;;;;;1999.90;999.90;;;3.20;99.90;;;;;;5015097;28;20452;-66
2023/01/25 02:41:25;;;;;;;1999.90;999.90;;;3.20;99.90;;;;;;5015119;28;21001;-67
2023/01/25 02:43:52;;;;;;;1999.90;999.90;;;3.20;99.90;;;;;;5014789;28;20479;-66
2023/01/25 02:46:24;;;;;;;1999.90;999.90;;;3.20;99.90;;;;;;5015211;28;20456;-67
2023/01/25 02:48:52;;;;;;;1999.90;999.90;;;3.20;99.90;;;;;;5015375;28;20540;-66
2023/01/25 02:51:19;;;;;;;1999.90;999.90;;;3.20;99.90;;;;;;5015084;28;20940;-67
2023/01/25 02:53:46;;;;;;;1999.90;999.90;;;3.10;99.90;;;;;;5012084;28;20557;-67
2023/01/25 02:56:13;;;;;;;1999.90;999.90;;;3.10;99.90;;;;;;5011903;28;20453;-66
2023/01/25 02:58:41;;;;;;;1999.90;999.90;;;3.10;99.90;;;;;;5012755;28;20458;-66
2023/01/25 03:01:08;;;;;;;1999.90;999.90;;;3.10;99.90;;;;;;5011750;28;21030;-67
2023/01/25 03:03:35;;;;;;;1999.90;999.90;;;3.20;99.90;;;;;;5011813;28;20449;-66
2023/01/25 03:06:02;;;;;;;1999.90;999.90;;;3.10;99.90;;;;;;5011856;28;20453;-66
2023/01/25 03:08:29;;;;;;;1999.90;999.90;;;3.10;99.90;;;;;;5011823;28;20480;-67
2023/01/25 03:10:56;;;;;;;1999.90;999.90;;;3.20;99.90;;;;;;5011466;28;20926;-67
2023/01/25 03:13:23;;;;;;;1999.90;999.90;;;3.20;99.90;;;;;;5011547;28;20445;-66
2023/01/25 03:15:52;;;;;;;1999.90;999.90;;;3.20;99.90;;;;;;5011924;28;20766;-67
2023/01/25 03:18:19;;;;;;;1999.90;999.90;;;3.30;99.90;;;;;;5011560;28;20446;-67
2023/01/25 03:20:45;;;;;;;1999.90;999.90;;;3.20;99.90;;;;;;5011592;28;20866;-67
2023/01/25 03:23:12;;;;;;;1999.90;999.90;;;3.30;99.90;;;;;;5011126;28;20875;-66
2023/01/25 03:25:39;;;;;;;1999.90;999.90;;;3.30;99.90;;;;;;5011619;28;20484;-67
2023/01/25 03:28:06;;;;;;;1999.90;999.90;;;3.30;99.90;;;;;;5011406;28;20457;-67
2023/01/25 03:30:32;;;;;;;1999.90;999.90;;;3.40;99.90;;;;;;5011351;28;20446;-66
2023/01/25 03:33:01;;;;;;;1999.90;999.90;;;3.40;99.90;;;;;;5010942;28;20457;-67
2023/01/25 03:35:27;;;;;;;1999.90;999.90;;;3.40;99.90;;;;;;5011113;28;21002;-67
2023/01/25 03:37:54;;;;;;;1999.90;999.90;;;3.40;99.90;;;;;;5011236;28;20458;-67
2023/01/25 03:40:21;;;;;;;1999.90;999.90;;;3.40;99.90;;;;;;5011078;28;20857;-67
2023/01/25 03:42:48;;;;;;;1999.90;999.90;;;3.40;99.90;;;;;;5010982;28;20450;-68
2023/01/25 03:45:14;;;;;;;1999.90;999.90;;;3.40;99.90;;;;;;5010922;28;20470;-67
2023/01/25 03:47:41;;;;;;;1999.90;999.90;;;3.40;99.90;;;;;;5011130;28;20457;-67
2023/01/25 03:50:11;;;;;;;1999.90;999.90;;;3.30;99.90;;;;;;5010721;28;20468;-67
2023/01/25 03:52:40;;;;;;;1999.90;999.90;;;3.30;99.90;;;;;;5010527;28;20446;-66
2023/01/25 03:55:08;;;;;;;1999.90;999.90;;;3.20;99.90;;;;;;5010631;28;20476;-66
2023/01/25 03:57:35;;;;;;;1999.90;999.90;;;3.20;99.90;;;;;;5011054;28;20460;-67
2023/01/25 04:00:02;;;;;;;1999.90;999.90;;;3.20;99.90;;;;;;5010782;28;20457;-67
2023/01/25 04:02:29;;;;;;;1999.90;999.90;;;3.20;99.90;;;;;;5010531;28;20446;-67
2023/01/25 04:04:56;;;;;;;1999.90;999.90;;;3.20;99.90;;;;;;5009454;28;20531;-67
2023/01/25 04:07:24;;;;;;;1999.90;999.90;;;3.20;99.90;;;;;;5010527;28;20453;-67
2023/01/25 04:09:51;;;;;;;1999.90;999.90;;;3.20;99.90;;;;;;5010831;28;20912;-67
2023/01/25 04:12:17;;;;;;;1999.90;999.90;;;3.20;99.90;;;;;;5010257;28;20971;-67
2023/01/25 04:14:44;;;;;;;1999.90;999.90;;;3.20;99.90;;;;;;5010469;28;20493;-66
2023/01/25 04:17:11;;;;;;;1999.90;999.90;;;3.20;99.90;;;;;;5010317;28;20864;-65
2023/01/25 04:19:38;;;;;;;1999.90;999.90;;;3.20;99.90;;;;;;5010589;28;20446;-67
2023/01/25 04:22:05;;;;;;;1999.90;999.90;;;3.20;99.90;;;;;;5010295;28;20477;-65
2023/01/25 04:24:33;;;;;;;1999.90;999.90;;;3.20;99.90;;;;;;5009910;28;21204;-65
2023/01/25 04:27:00;;;;;;;1999.90;999.90;;;3.20;99.90;;;;;;5010635;28;20465;-67
2023/01/25 04:29:26;;;;;;;1999.90;999.90;;;3.20;99.90;;;;;;5010141;28;20445;-67
2023/01/25 04:31:53;;;;;;;1999.90;999.90;;;3.20;99.90;;;;;;5010298;28;20442;-66
2023/01/25 04:34:20;;;;;;;1999.90;999.90;;;3.20;99.90;;;;;;5009502;28;20479;-67
2023/01/25 04:36:47;;;;;;;1999.90;999.90;;;3.20;99.90;;;;;;5010368;28;20450;-66
2023/01/25 04:39:13;;;;;;;1999.90;999.90;;;3.30;99.90;;;;;;5009911;28;20948;-66
2023/01/25 04:41:42;;;;;;;1999.90;999.90;;;3.30;99.90;;;;;;5020124;28;20567;-67
2023/01/25 04:44:08;;;;;;;1999.90;999.90;;;3.30;99.90;;;;;;5029195;28;20468;-67
2023/01/25 04:46:35;;;;;;;1999.90;999.90;;;3.30;99.90;;;;;;5029773;28;20445;-66
2023/01/25 04:49:02;;;;;;;1999.90;999.90;;;3.30;99.90;;;;;;5029802;28;20448;-66
2023/01/25 04:51:29;;;;;;;1999.90;999.90;;;3.30;99.90;;;;;;5029838;28;20444;-67
2023/01/25 04:53:55;;;;;;;1999.90;999.90;;;3.30;99.90;;;;;;5029565;28;20477;-67
2023/01/25 04:56:22;;;;;;;1999.90;999.90;;;3.30;99.90;;;;;;5029669;28;20479;-67
2023/01/25 04:58:50;;;;;;;1999.90;999.90;;;3.20;99.90;;;;;;5029620;28;20452;-67
2023/01/25 05:01:17;;;;;;;1999.90;999.90;;;3.20;99.90;;;;;;5029180;28;20483;-67
2023/01/25 05:03:44;;;;;;;1999.90;999.90;;;3.10;99.90;;;;;;5029268;28;20480;-66
2023/01/25 05:06:11;;;;;;;1999.90;999.90;;;3.10;99.90;;;;;;5029347;28;20451;-67
2023/01/25 05:08:37;;;;;;;1999.90;999.90;;;3.20;99.90;;;;;;5018982;28;20457;-68
2023/01/25 05:11:04;;;;;;;1999.90;999.90;;;3.20;99.90;;;;;;5009379;28;20465;-65
2023/01/25 05:13:31;;;;;;;1999.90;999.90;;;3.20;99.90;;;;;;5009104;28;20458;-66
2023/01/25 05:15:59;;;;;;;1999.90;999.90;;;3.20;99.90;;;;;;5009068;28;20461;-66
2023/01/25 05:18:26;;;;;;;1999.90;999.90;;;3.20;99.90;;;;;;5009488;28;20457;-65
2023/01/25 05:20:55;;;;;;;1999.90;999.90;;;3.30;99.90;;;;;;5009550;28;20485;-67
2023/01/25 05:23:22;;;;;;;1999.90;999.90;;;3.20;99.90;;;;;;5008979;28;20453;-67
2023/01/25 05:28:33;;;;;;;1999.90;999.90;;;3.40;99.90;;;;;;5009183;28;20414;-66
2023/01/25 05:31:05;;;;;;;1999.90;999.90;;;3.30;99.90;;;;;;5009526;28;20461;-67
2023/01/25 05:33:31;;;;;;;1999.90;999.90;;;3.40;99.90;;;;;;5008904;28;20461;-66
2023/01/25 05:35:58;;;;;;;1999.90;999.90;;;3.40;99.90;;;;;;5009481;28;20449;-66
2023/01/25 05:38:25;;;;;;;1999.90;999.90;;;3.40;99.90;;;;;;5009103;28;20492;-68
2023/01/25 05:40:52;;;;;;;1999.90;999.90;;;3.40;99.90;;;;;;5009009;28;20485;-67
2023/01/25 05:43:18;;;;;;;1999.90;999.90;;;3.30;99.90;;;;;;5008790;28;20454;-66
2023/01/25 05:45:52;;;;;;;1999.90;999.90;;;3.30;99.90;;;;;;5008808;28;20466;-66
2023/01/25 05:48:20;;;;;;;1999.90;999.90;;;3.30;99.90;;;;;;5009249;28;20452;-66
2023/01/25 05:50:47;;;;;;;1999.90;999.90;;;3.30;99.90;;;;;;5008849;28;20450;-66
2023/01/25 05:53:13;;;;;;;1999.90;999.90;;;3.40;99.90;;;;;;5008768;28;20449;-67
2023/01/25 05:55:40;;;;;;;1999.90;999.90;;;3.40;99.90;;;;;;5009125;28;20481;-66
2023/01/25 05:58:07;;;;;;;1999.90;999.90;;;3.40;99.90;;;;;;5009271;28;20461;-66
2023/01/25 06:00:34;;;;;;;1999.90;999.90;;;3.30;99.90;;;;;;5009185;28;20456;-67
2023/01/25 06:03:01;;;;;;;1999.90;999.90;;;3.40;99.90;;;;;;5008932;28;20450;-67
2023/01/25 06:05:30;;;;;;;1999.90;999.90;;;3.40;99.90;;;;;;5008900;28;20465;-66
2023/01/25 06:07:58;;;;;;;1999.90;999.90;;;3.40;99.90;;;;;;5008619;28;20952;-67
2023/01/25 06:10:25;;;;;;;1999.90;999.90;;;3.40;99.90;;;;;;5008977;28;20456;-67
2023/01/25 06:12:56;;;;;;;1999.90;999.90;;;3.40;99.90;;;;;;5003954;28;20461;-66
2023/01/25 06:15:23;;;;;;;1999.90;999.90;;;3.30;99.90;;;;;;5004559;28;20470;-67
2023/01/25 06:17:54;;;;;;;1999.90;999.90;;;3.20;99.90;;;;;;5007322;28;20955;-67
2023/01/25 06:20:21;;;;;;;1999.90;999.90;;;3.30;99.90;;;;;;5008295;28;20460;-67
2023/01/25 06:22:50;;;;;;;1999.90;999.90;;;3.30;99.90;;;;;;4994043;28;20482;-67
2023/01/25 06:25:17;;;;;;;1999.90;999.90;;;3.40;99.90;;;;;;4987665;28;20471;-67
2023/01/25 06:27:44;;;;;;;1999.90;999.90;;;3.30;99.90;;;;;;4987285;28;20447;-68
2023/01/25 06:30:11;;;;;;;1999.90;999.90;;;3.30;99.90;;;;;;5010873;28;20449;-68
2023/01/25 06:32:38;;;;;;;1999.90;999.90;;;3.20;99.90;;;;;;5004875;28;20446;-67
2023/01/25 06:35:06;;;;;;;1999.90;999.90;;;3.30;99.90;;;;;;4999783;28;20475;-67
2023/01/25 06:37:33;;;;;;;1999.90;999.90;;;3.30;99.90;;;;;;5002329;28;20438;-68
2023/01/25 06:40:01;;;;;;;1999.90;999.90;;;3.30;99.90;;;;;;4997773;28;20446;-67
2023/01/25 06:42:27;;;;;;;1999.90;999.90;;;3.30;99.90;;;;;;4992745;28;20478;-67
2023/01/25 06:44:54;;;;;;;1999.90;999.90;;;3.30;99.90;;;;;;4992687;28;20478;-68
2023/01/25 06:47:21;;;;;;;1999.90;999.90;;;3.30;99.90;;;;;;4998008;28;20460;-67
2023/01/25 06:49:48;;;;;;;1999.90;999.90;;;3.30;99.90;;;;;;5012516;28;20456;-68
2023/01/25 06:52:15;;;;;;;1999.90;999.90;;;3.30;99.90;;;;;;5012812;28;20445;-66
2023/01/25 06:54:41;;;;;;;1999.90;999.90;;;3.20;99.90;;;;;;5011941;28;20846;-66
2023/01/25 06:57:10;;;;;;;1999.90;999.90;;;3.20;99.90;;;;;;5000719;28;20458;-67
2023/01/25 06:59:37;;;;;;;1999.90;999.90;;;3.20;99.90;;;;;;4992082;28;20726;-67
2023/01/25 07:02:04;;;;;;;1999.90;999.90;;;3.30;99.90;;;;;;4990769;28;20489;-65
2023/01/25 07:04:31;;;;;;;1999.90;999.90;;;3.30;99.90;;;;;;4992120;28;20506;-67
2023/01/25 07:06:58;;;;;;;1999.90;999.90;;;3.30;99.90;;;;;;4992443;28;20451;-66
2023/01/25 07:09:25;;;;;;;1999.90;999.90;;;3.30;99.90;;;;;;4994969;28;20474;-67
2023/01/25 07:11:51;;;;;;;1999.90;999.90;;;3.30;99.90;;;;;;4992843;28;20482;-66
2023/01/25 07:14:19;;;;;;;1999.90;999.90;;;3.40;99.90;;;;;;4993088;28;20478;-66
2023/01/25 07:16:46;;;;;;;1999.90;999.90;;;3.40;99.90;;;;;;4992027;28;20941;-67
2023/01/25 07:19:13;;;;;;;1999.90;999.90;;;3.50;99.90;;;;;;4991845;28;20450;-66
2023/01/25 07:21:40;;;;;;;1999.90;999.90;;;3.40;99.90;;;;;;4992185;28;20474;-66
2023/01/25 07:24:07;;;;;;;1999.90;999.90;;;3.40;99.90;;;;;;4991686;28;20558;-67
2023/01/25 07:26:34;;;;;;;1999.90;999.90;;;3.40;99.90;;;;;;4992086;28;20451;-67
2023/01/25 07:29:00;;;;;;;1999.90;999.90;;;3.40;99.90;;;;;;4991843;28;20458;-66
2023/01/25 07:31:29;;;;;;;1999.90;999.90;;;3.30;99.90;;;;;;4993021;28;20439;-67
2023/01/25 07:33:57;;;;;;;1999.90;999.90;;;3.20;99.90;;;;;;4991708;28;20470;-66
2023/01/25 07:36:25;;;;;;;1999.90;999.90;;;3.20;99.90;;;;;;5001415;28;20941;-66
2023/01/25 07:38:53;;;;;;;1999.90;999.90;;;3.20;99.90;;;;;;4992153;28;20447;-66
2023/01/25 07:41:20;;;;;;;1999.90;999.90;;;3.20;99.90;;;;;;4991858;28;20450;-65
2023/01/25 07:43:47;;;;;;;1999.90;999.90;;;3.20;99.90;;;;;;4992087;28;20486;-67
2023/01/25 07:46:15;;;;;;;1999.90;999.90;;;3.20;99.90;;;;;;5011257;28;20460;-67
2023/01/25 07:48:48;;;;;;;1999.90;999.90;;;3.20;99.90;;;;;;5003603;28;20503;-67
2023/01/25 07:51:22;;;;;;;1999.90;999.90;;;3.20;99.90;;;;;;5011331;28;20454;-67
2023/01/25 07:53:50;;;;;;;1999.90;999.90;;;3.30;99.90;;;;;;5010881;28;20516;-67
2023/01/25 07:56:18;;;;;;;1999.90;999.90;;;3.30;99.90;;;;;;5010781;28;20454;-66
2023/01/25 07:58:45;;;;;;;1999.90;999.90;;;3.20;99.90;;;;;;5011137;28;20446;-66
2023/01/25 08:01:14;;;;;;;1999.90;999.90;;;3.30;99.90;;;;;;5010862;28;20448;-66
2023/01/25 08:03:43;;;;;;;1999.90;999.90;;;3.30;99.90;;;;;;5010513;28;20457;-66
2023/01/25 08:06:10;;;;;;;1999.90;999.90;;;3.30;99.90;;;;;;5011035;28;20453;-67
2023/01/25 08:08:39;;;;;;;1999.90;999.90;;;3.20;99.90;;;;;;5010764;28;20900;-67
2023/01/25 08:11:11;;;;;;;1999.90;999.90;;;3.20;99.90;;;;;;5010454;28;21086;-66
2023/01/25 08:13:38;;;;;;;1999.90;999.90;;;3.20;99.90;;;;;;5010458;28;20488;-67
2023/01/25 08:16:05;;;;;;;1999.90;999.90;;;3.20;99.90;;;;;;5010601;28;20528;-67
2023/01/25 08:18:32;;;;;;;1999.90;999.90;;;3.10;99.90;;;;;;5010503;28;20449;-66
2023/01/25 08:21:01;;;;;;;1999.90;999.90;;;3.10;99.90;;;;;;5010573;28;20453;-67
2023/01/25 08:23:28;;;;;;;1999.90;999.90;;;3.10;99.90;;;;;;5009923;28;20572;-67
2023/01/25 08:25:55;;;;;;;1999.90;999.90;;;3.10;99.90;;;;;;5010629;28;20529;-67
2023/01/25 08:28:22;;;;;;;1999.90;999.90;;;3.10;99.90;;;;;;5010519;28;20453;-66
2023/01/25 08:30:49;;;;;;;1999.90;999.90;;;3.10;99.90;;;;;;5010678;28;20541;-67
2023/01/25 08:33:15;;;;;;;1999.90;999.90;;;3.20;99.90;;;;;;5010079;28;20449;-67
2023/01/25 08:35:42;;;;;;;1999.90;999.90;;;3.10;99.90;;;;;;5010560;28;20477;-66
2023/01/25 08:38:10;;;;;;;1999.90;999.90;;;3.10;99.90;;;;;;5010104;28;20951;-67
2023/01/25 08:40:37;;;;;;;1999.90;999.90;;;3.20;99.90;;;;;;5010157;28;20461;-67
2023/01/25 08:43:04;;;;;;;1999.90;999.90;;;3.20;99.90;;;;;;5010096;28;20485;-67
2023/01/25 08:45:33;;;;;;;1999.90;999.90;;;3.30;99.90;;;;;;5010036;28;20841;-65
2023/01/25 08:48:00;;;;;;;1999.90;999.90;;;3.30;99.90;;;;;;5010215;28;20446;-67
2023/01/25 08:50:27;;;;;;;1999.90;999.90;;;3.30;99.90;;;;;;5009950;28;20827;-66
2023/01/25 08:52:53;;;;;;;1999.90;999.90;;;3.30;99.90;;;;;;5009972;28;20935;-67
2023/01/25 08:55:21;;;;;;;1999.90;999.90;;;3.30;99.90;;;;;;5009999;28;20461;-66
2023/01/25 08:57:49;;;;;;;1999.90;999.90;;;3.30;99.90;;;;;;5010338;28;20807;-67
2023/01/25 09:00:17;;;;;;;1999.90;999.90;;;3.30;99.90;;;;;;5009843;28;20453;-67
2023/01/25 09:02:43;;;;;;;1999.90;999.90;;;3.30;99.90;;;;;;5009695;28;20477;-67
2023/01/25 09:05:10;;;;;;;1999.90;999.90;;;3.30;99.90;;;;;;5009539;28;20466;-67
2023/01/25 09:07:38;;;;;;;1999.90;999.90;;;3.30;99.90;;;;;;5010028;28;20461;-67
2023/01/25 09:10:07;;;;;;;1999.90;999.90;;;3.20;99.90;;;;;;5009698;28;20450;-66
2023/01/25 09:12:35;;;;;;;1999.90;999.90;;;3.20;99.90;;;;;;5008641;28;20461;-67
2023/01/25 09:15:03;;;;;;;1999.90;999.90;;;3.20;99.90;;;;;;5009659;28;21189;-66
2023/01/25 09:17:29;;;;;;;1999.90;999.90;;;3.20;99.90;;;;;;5009798;28;20450;-67
2023/01/25 09:19:56;;;;;;;1999.90;999.90;;;3.30;99.90;;;;;;5009476;28;20943;-67
2023/01/25 09:22:23;;;;;;;1999.90;999.90;;;3.30;99.90;;;;;;5009161;28;21025;-67
2023/01/25 09:24:52;;;;;;;1999.90;999.90;;;3.30;99.90;;;;;;5009662;28;20470;-65
2023/01/25 09:27:19;;;;;;;1999.90;999.90;;;3.30;99.90;;;;;;5009569;28;20454;-67
2023/01/25 09:29:47;;;;;;;1999.90;999.90;;;3.30;99.90;;;;;;5009563;28;21019;-67
2023/01/25 09:32:14;;;;;;;1999.90;999.90;;;3.40;99.90;;;;;;5009352;28;20446;-67
2023/01/25 09:34:41;;;;;;;1999.90;999.90;;;3.40;99.90;;;;;;5008993;28;20481;-66
2023/01/25 09:37:08;;;;;;;1999.90;999.90;;;3.50;99.90;;;;;;5009433;28;20457;-66
2023/01/25 09:39:35;;;;;;;1999.90;999.90;;;3.40;99.90;;;;;;5009563;28;20445;-67
2023/01/25 09:42:23;;;;;;;1999.90;999.90;;;3.40;99.90;;;;;;5009322;28;20450;-67
2023/01/25 09:45:17;;;;;;;1999.90;999.90;;;3.40;99.90;;;;;;5009386;28;20512;-67
2023/01/25 09:47:50;;;;;;;1999.90;999.90;;;3.40;99.90;;;;;;5009347;28;20454;-67
2023/01/25 09:50:31;;;;;;;1999.90;999.90;;;3.40;99.90;;;;;;5009582;28;20453;-66
2023/01/25 09:53:23;;;;;;;1999.90;999.90;;;3.50;99.90;;;;;;5009129;28;20449;-66
2023/01/25 09:55:57;;;;;;;1999.90;999.90;;;3.50;99.90;;;;;;5006839;28;20505;-66
2023/01/25 09:58:29;;;;;;;1999.90;999.90;;;3.50;99.90;;;;;;5009323;28;20445;-66
2023/01/25 10:01:09;;;;;;;1999.90;999.90;;;3.50;99.90;;;;;;5009183;28;20449;-66
2023/01/25 10:03:45;;;;;;;1999.90;999.90;;;3.60;99.90;;;;;;5012010;28;20489;-66
2023/01/25 10:06:15;;;;;;;1999.90;999.90;;;3.60;99.90;;;;;;5013355;28;20452;-66
2023/01/25 10:08:49;;;;;;;1999.90;999.90;;;3.70;99.90;;;;;;5013084;28;20803;-67
2023/01/25 10:11:21;;;;;;;1999.90;999.90;;;3.70;99.90;;;;;;5019457;28;20466;-67
2023/01/25 10:13:49;;;;;;;1999.90;999.90;;;3.70;99.90;;;;;;5032233;28;20469;-66
2023/01/25 10:16:23;;;;;;;1999.90;999.90;;;3.70;99.90;;;;;;5032664;28;20452;-67
2023/01/25 10:18:58;;;;;;;1999.90;999.90;;;3.70;99.90;;;;;;5032594;28;20448;-67
2023/01/25 10:21:30;;;;;;;1999.90;999.90;;;3.70;99.90;;;;;;5032600;28;20444;-66
2023/01/25 10:24:28;;;;;;;1999.90;999.90;;;3.70;99.90;;;;;;5031941;28;20855;-66
2023/01/25 10:26:57;;;;;;;1999.90;999.90;;;3.70;99.90;;;;;;5026580;28;20479;-66
2023/01/25 10:29:28;;;;;;;1999.90;999.90;;;3.70;99.90;;;;;;5032413;28;20449;-66
2023/01/25 10:32:02;;;;;;;1999.90;999.90;;;3.70;99.90;;;;;;5032453;28;20448;-65
2023/01/25 10:34:33;;;;;;;1999.90;999.90;;;3.60;99.90;;;;;;5023909;28;20465;-67
2023/01/25 10:37:04;;;;;;;1999.90;999.90;;;3.70;99.90;;;;;;5012687;28;20446;-67
2023/01/25 10:39:36;;;;;;;1999.90;999.90;;;3.70;99.90;;;;;;5012380;28;20445;-66
2023/01/25 10:42:08;;;;;;;1999.90;999.90;;;3.70;99.90;;;;;;5012661;28;20438;-67
2023/01/25 10:44:35;;;;;;;1999.90;999.90;;;3.70;99.90;;;;;;5012197;28;20978;-66
2023/01/25 10:47:14;;;;;;;1999.90;999.90;;;3.70;99.90;;;;;;5012495;28;20442;-66
2023/01/25 10:49:43;;;;;;;1999.90;999.90;;;3.70;99.90;;;;;;5012654;28;20457;-66
2023/01/25 10:52:16;;;;;;;1999.90;999.90;;;3.70;99.90;;;;;;5012732;28;20811;-66
2023/01/25 10:54:43;;;;;;;1999.90;999.90;;;3.60;99.90;;;;;;5012252;28;20458;-68
2023/01/25 10:57:18;;;;;;;1999.90;999.90;;;3.70;99.90;;;;;;5012445;28;20452;-66
2023/01/25 10:59:48;;;;;;;1999.90;999.90;;;3.80;99.90;;;;;;5012082;28;20445;-66
2023/01/25 11:02:42;;;;;;;1999.90;999.90;;;3.90;99.90;;;;;;5012029;28;20461;-66
2023/01/25 11:05:31;;;;;;;1999.90;999.90;;;3.80;99.90;;;;;;5011843;28;21003;-67
2023/01/25 11:08:14;;;;;;;1999.90;999.90;;;3.70;99.90;;;;;;5012534;28;20442;-66
2023/01/25 11:10:43;;;;;;;1999.90;999.90;;;3.60;99.90;;;;;;5011574;28;20481;-66
2023/01/25 11:13:25;;;;;;;1999.90;999.90;;;3.60;99.90;;;;;;5011779;28;20445;-66
2023/01/25 11:15:54;;;;;;;1999.90;999.90;;;3.60;99.90;;;;;;5011172;28;20446;-66
2023/01/25 11:18:24;;;;;;;1999.90;999.90;;;3.50;99.90;;;;;;5011605;28;20446;-67
2023/01/25 11:21:08;;;;;;;1999.90;999.90;;;3.50;99.90;;;;;;5011266;28;20449;-66
2023/01/25 11:23:35;;;;;;;1999.90;999.90;;;3.40;99.90;;;;;;5011257;28;20485;-66
2023/01/25 11:26:13;;;;;;;1999.90;999.90;;;3.50;99.90;;;;;;5011479;28;20458;-68
2023/01/25 11:28:41;;;;;;;1999.90;999.90;;;3.50;99.90;;;;;;5011688;28;20458;-67
2023/01/25 11:31:11;;;;;;;1999.90;999.90;;;3.50;99.90;;;;;;5011340;28;20442;-67
2023/01/25 11:33:40;;;;;;;1999.90;999.90;;;3.50;99.90;;;;;;5010942;28;20446;-66
2023/01/25 11:36:20;;;;;;;1999.90;999.90;;;3.50;99.90;;;;;;5011283;28;20939;-67
2023/01/25 11:39:02;;;;;;;1999.90;999.90;;;3.40;99.90;;;;;;5011502;28;20446;-67
2023/01/25 11:41:38;;;;;;;1999.90;999.90;;;3.40;99.90;;;;;;5011148;28;20440;-65
2023/01/25 11:44:37;;;;;;;1999.90;999.90;;;3.40;99.90;;;;;;5010654;28;20921;-66
2023/01/25 11:47:11;;;;;;;1999.90;999.90;;;3.40;99.90;;;;;;5002351;28;20460;-67
2023/01/25 11:49:50;;;;;;;1999.90;999.90;;;3.40;99.90;;;;;;5011129;28;20438;-67
2023/01/25 11:52:31;;;;;;;1999.90;999.90;;;3.40;99.90;;;;;;5010748;28;20982;-66
2023/01/25 11:55:10;;;;;;;1999.90;999.90;;;3.30;99.90;;;;;;5010790;28;20987;-66
2023/01/25 11:57:57;;;;;;;1999.90;999.90;;;3.30;99.90;;;;;;5010858;28;20453;-65
2023/01/25 12:00:38;;;;;;;1999.90;999.90;;;3.40;99.90;;;;;;5010823;28;20454;-66
2023/01/25 12:03:35;;;;;;;1999.90;999.90;;;3.40;99.90;;;;;;5010249;28;20485;-65
2023/01/25 12:06:08;;;;;;;1999.90;999.90;;;3.50;99.90;;;;;;4986748;28;20537;-67
2023/01/25 12:08:52;;;;;;;1999.90;999.90;;;3.60;99.90;;;;;;5010811;28;20449;-66
2023/01/25 12:11:34;;;;;;;1999.90;999.90;;;3.50;99.90;;;;;;5010731;28;20453;-66
2023/01/25 12:14:10;;;;;;;1999.90;999.90;;;3.50;99.90;;;;;;5010327;28;20466;-67
2023/01/25 12:16:51;;;;;;;1999.90;999.90;;;3.60;99.90;;;;;;5010734;28;20450;-66
2023/01/25 12:19:40;;;;;;;1999.90;999.90;;;3.70;99.90;;;;;;5010486;28;20813;-66
2023/01/25 12:22:32;;;;;;;1999.90;999.90;;;3.80;99.90;;;;;;5010716;28;20822;-66